createdAt,value
2018-04-14T00:00:12.392Z,10.45
2018-04-14T00:01:15.638Z,9.25
2018-04-14T00:02:18.148Z,10.88
2018-04-14T00:03:20.640Z,9.70
2018-04-14T00:04:23.143Z,9.70
2018-04-14T00:05:25.675Z,10.20
2018-04-14T00:06:28.249Z,14.45
2018-04-14T00:07:30.775Z,11.02
2018-04-14T00:08:33.279Z,11.63
2018-04-14T00:09:35.742Z,10.82
2018-04-14T00:10:38.997Z,12.77
2018-04-14T00:11:42.257Z,10.70
2018-04-14T00:12:44.759Z,10.95
2018-04-14T00:13:47.987Z,9.60
2018-04-14T00:14:50.461Z,10.00
2018-04-14T00:15:52.928Z,13.98
2018-04-14T00:16:55.399Z,12.00
2018-04-14T00:17:57.905Z,10.90
2018-04-14T00:19:01.567Z,11.48
2018-04-14T00:20:04.822Z,10.80
2018-04-14T00:21:07.301Z,10.75
2018-04-14T00:22:09.810Z,11.55
2018-04-14T00:23:12.290Z,10.32
2018-04-14T00:24:14.821Z,12.07
2018-04-14T00:25:17.315Z,11.77
2018-04-14T00:26:20.272Z,12.20
2018-04-14T00:27:23.517Z,12.85
2018-04-14T00:28:26.802Z,13.25
2018-04-14T00:29:29.298Z,11.07
2018-04-14T00:30:31.862Z,10.80
2018-04-14T00:31:34.345Z,11.63
2018-04-14T00:32:36.830Z,11.85
2018-04-14T00:33:39.305Z,13.80
2018-04-14T00:34:41.797Z,11.82
2018-04-14T00:35:45.044Z,12.37
2018-04-14T00:36:48.285Z,11.98
2018-04-14T00:37:51.518Z,14.10
2018-04-14T00:38:54.009Z,13.05
2018-04-14T00:39:56.582Z,12.80
2018-04-14T00:40:59.816Z,12.90
2018-04-14T00:42:03.081Z,12.02
2018-04-14T00:43:05.548Z,14.63
2018-04-14T00:44:08.002Z,11.52
2018-04-14T00:45:10.546Z,13.10
2018-04-14T00:46:13.811Z,13.93
2018-04-14T00:47:16.304Z,12.80
2018-04-14T00:48:19.562Z,13.18
2018-04-14T00:49:22.825Z,14.20
2018-04-14T00:50:25.292Z,14.40
2018-04-14T00:51:27.771Z,13.90
2018-04-14T00:52:30.249Z,13.07
2018-04-14T00:53:44.671Z,12.77
2018-04-14T00:54:47.897Z,13.13
2018-04-14T00:55:51.162Z,14.87
2018-04-14T00:56:54.405Z,12.40
2018-04-14T00:57:56.891Z,12.37
2018-04-14T00:58:59.388Z,12.15
2018-04-14T01:00:01.865Z,12.73
2018-04-14T01:01:05.157Z,12.35
2018-04-14T01:02:07.662Z,15.65
2018-04-14T01:03:10.154Z,13.40
2018-04-14T01:04:13.417Z,11.70
2018-04-14T01:05:16.679Z,12.40
2018-04-14T01:06:19.160Z,13.10
2018-04-14T01:07:22.401Z,13.30
2018-04-14T01:08:24.871Z,12.75
2018-04-14T01:09:27.372Z,13.62
2018-04-14T01:10:30.663Z,21.50
2018-04-14T01:11:33.150Z,36.08
2018-04-14T01:12:35.650Z,15.35
2018-04-14T01:13:38.908Z,14.60
2018-04-14T01:14:41.393Z,14.63
2018-04-14T01:15:43.992Z,14.68
2018-04-14T01:16:46.489Z,14.30
2018-04-14T01:17:49.766Z,16.30
2018-04-14T01:18:52.241Z,83.12
2018-04-14T01:19:55.481Z,15.73
2018-04-14T01:20:58.721Z,20.95
2018-04-14T01:22:01.189Z,17.17
2018-04-14T01:23:03.681Z,14.98
2018-04-14T01:24:06.954Z,16.37
2018-04-14T01:25:09.433Z,15.27
2018-04-14T01:26:11.904Z,19.05
2018-04-14T01:27:14.364Z,15.15
2018-04-14T01:28:16.851Z,14.77
2018-04-14T01:29:19.352Z,16.15
2018-04-14T01:30:22.580Z,17.02
2018-04-14T01:31:25.814Z,18.02
2018-04-14T01:32:28.337Z,17.33
2018-04-14T01:33:30.774Z,21.80
2018-04-14T01:34:34.014Z,36.60
2018-04-14T01:35:37.274Z,17.20
2018-04-14T01:36:40.509Z,16.17
2018-04-14T01:37:43.740Z,21.55
2018-04-14T01:38:46.236Z,19.55
2018-04-14T01:39:48.733Z,19.67
2018-04-14T01:40:51.229Z,17.90
2018-04-14T01:41:54.486Z,18.70
2018-04-14T01:42:56.968Z,19.90
2018-04-14T01:43:59.453Z,22.25
2018-04-14T01:45:02.703Z,28.45
2018-04-14T01:46:05.204Z,21.48
2018-04-14T01:47:07.708Z,21.60
2018-04-14T01:48:10.175Z,16.98
2018-04-14T01:49:12.654Z,24.37
2018-04-14T01:50:15.208Z,19.40
2018-04-14T01:51:17.713Z,16.42
2018-04-14T01:52:20.987Z,17.95
2018-04-14T01:53:23.521Z,17.20
2018-04-14T01:54:25.999Z,16.60
2018-04-14T01:55:28.480Z,17.12
2018-04-14T01:56:30.962Z,22.95
2018-04-14T01:57:33.464Z,18.77
2018-04-14T01:58:36.034Z,16.77
2018-04-14T01:59:38.497Z,17.62
2018-04-14T02:00:42.577Z,17.92
2018-04-14T02:01:45.142Z,18.95
2018-04-14T02:02:47.639Z,18.10
2018-04-14T02:03:50.885Z,17.45
2018-04-14T02:04:54.129Z,20.70
2018-04-14T02:05:57.400Z,17.80
2018-04-14T02:06:59.884Z,20.05
2018-04-14T02:08:02.459Z,18.20
2018-04-14T02:09:04.972Z,17.52
2018-04-14T02:10:07.460Z,18.15
2018-04-14T02:11:09.957Z,18.40
2018-04-14T02:12:12.461Z,18.05
2018-04-14T02:13:15.021Z,18.10
2018-04-14T02:14:17.478Z,21.83
2018-04-14T02:15:20.828Z,18.60
2018-04-14T02:16:24.486Z,17.58
2018-04-14T02:17:27.737Z,18.42
2018-04-14T02:18:30.260Z,25.58
2018-04-14T02:19:32.743Z,19.20
2018-04-14T02:20:35.314Z,19.10
2018-04-14T02:21:38.567Z,17.58
2018-04-14T02:22:41.045Z,24.80
2018-04-14T02:23:43.533Z,18.70
2018-04-14T02:24:46.017Z,17.80
2018-04-14T02:25:49.267Z,19.92
2018-04-14T02:26:51.749Z,18.87
2018-04-14T02:27:54.230Z,17.87
2018-04-14T02:28:56.781Z,21.15
2018-04-14T02:29:59.496Z,20.30
2018-04-14T02:31:01.968Z,20.00
2018-04-14T02:32:04.441Z,21.23
2018-04-14T02:33:06.901Z,21.15
2018-04-14T02:34:09.485Z,20.20
2018-04-14T02:35:11.959Z,20.80
2018-04-14T02:36:14.444Z,19.48
2018-04-14T02:37:16.927Z,24.23
2018-04-14T02:38:19.489Z,21.33
2018-04-14T02:39:22.051Z,19.23
2018-04-14T02:40:24.508Z,21.92
2018-04-14T02:41:27.736Z,21.12
2018-04-14T02:42:30.200Z,21.27
2018-04-14T02:43:32.683Z,21.55
2018-04-14T02:44:35.179Z,20.80
2018-04-14T02:45:37.639Z,20.75
2018-04-14T02:46:40.099Z,19.60
2018-04-14T02:47:42.594Z,20.40
2018-04-14T02:48:45.839Z,20.65
2018-04-14T02:49:48.314Z,20.95
2018-04-14T02:50:50.787Z,21.40
2018-04-14T02:51:53.337Z,22.40
2018-04-14T02:52:56.613Z,21.00
2018-04-14T02:53:59.130Z,21.08
2018-04-14T02:55:01.615Z,22.62
2018-04-14T02:56:04.901Z,20.88
2018-04-14T02:57:07.408Z,22.62
2018-04-14T02:58:09.894Z,21.95
2018-04-14T02:59:12.412Z,22.30
2018-04-14T03:00:14.985Z,21.80
2018-04-14T03:01:17.472Z,22.27
2018-04-14T03:02:19.969Z,21.60
2018-04-14T03:03:22.482Z,22.25
2018-04-14T03:04:25.101Z,22.27
2018-04-14T03:05:27.574Z,24.35
2018-04-14T03:06:30.815Z,23.55
2018-04-14T03:07:34.097Z,22.50
2018-04-14T03:08:36.619Z,24.42
2018-04-14T03:09:39.113Z,24.40
2018-04-14T03:10:41.619Z,26.48
2018-04-14T03:11:44.091Z,32.50
2018-04-14T03:12:46.553Z,24.37
2018-04-14T03:13:49.036Z,26.05
2018-04-14T03:14:52.318Z,23.87
2018-04-14T03:15:54.817Z,26.08
2018-04-14T03:16:57.294Z,24.75
2018-04-14T03:17:59.765Z,25.67
2018-04-14T03:19:02.242Z,25.00
2018-04-14T03:20:04.727Z,29.08
2018-04-14T03:21:07.188Z,26.30
2018-04-14T03:22:09.658Z,32.10
2018-04-14T03:23:12.179Z,28.52
2018-04-14T03:24:15.413Z,29.58
2018-04-14T03:25:18.644Z,29.27
2018-04-14T03:26:21.898Z,30.80
2018-04-14T03:27:25.154Z,29.95
2018-04-14T03:28:27.886Z,35.10
2018-04-14T03:29:31.140Z,41.25
2018-04-14T03:30:33.640Z,28.42
2018-04-14T03:31:36.900Z,50.08
2018-04-14T03:32:39.434Z,32.47
2018-04-14T03:33:41.953Z,33.17
2018-04-14T03:34:44.488Z,45.30
2018-04-14T03:35:46.979Z,34.38
2018-04-14T03:36:50.258Z,29.08
2018-04-14T03:37:53.389Z,28.27
2018-04-14T03:38:55.876Z,29.45
2018-04-14T03:39:58.391Z,28.00
2018-04-14T03:41:00.874Z,28.85
2018-04-14T03:42:03.374Z,28.12
2018-04-14T03:43:06.629Z,37.60
2018-04-14T03:44:09.116Z,30.42
2018-04-14T03:45:11.613Z,29.95
2018-04-14T03:46:14.209Z,29.10
2018-04-14T03:47:16.712Z,33.78
2018-04-14T03:48:19.949Z,32.97
2018-04-14T03:49:22.461Z,32.35
2018-04-14T03:50:24.926Z,34.80
2018-04-14T03:51:27.437Z,29.83
2018-04-14T03:52:30.671Z,30.10
2018-04-14T03:53:33.914Z,30.42
2018-04-14T03:54:37.177Z,29.08
2018-04-14T03:55:39.653Z,26.37
2018-04-14T03:56:42.135Z,28.02
2018-04-14T03:57:44.613Z,24.23
2018-04-14T03:58:47.080Z,24.85
2018-04-14T03:59:49.595Z,26.70
2018-04-14T04:00:52.075Z,24.37
2018-04-14T04:01:54.561Z,22.65
2018-04-14T04:02:57.076Z,23.62
2018-04-14T04:03:59.966Z,23.55
2018-04-14T04:05:02.466Z,25.62
2018-04-14T04:06:04.972Z,22.67
2018-04-14T04:07:07.485Z,23.48
2018-04-14T04:08:09.984Z,21.95
2018-04-14T04:09:12.592Z,22.55
2018-04-14T04:10:15.062Z,21.35
2018-04-14T04:11:17.745Z,22.35
2018-04-14T04:12:20.232Z,22.05
2018-04-14T04:13:22.704Z,24.35
2018-04-14T04:14:25.161Z,24.05
2018-04-14T04:15:27.647Z,24.30
2018-04-14T04:16:30.125Z,22.92
2018-04-14T04:17:32.625Z,23.40
2018-04-14T04:18:47.695Z,24.55
2018-04-14T04:20:02.095Z,23.73
2018-04-14T04:22:53.117Z,23.20
2018-04-14T04:24:07.543Z,23.42
2018-04-14T04:25:37.441Z,23.50
2018-04-14T04:26:39.907Z,22.35
2018-04-14T04:27:43.145Z,21.37
2018-04-14T04:28:45.708Z,18.95
2018-04-14T04:29:48.211Z,19.45
2018-04-14T04:30:50.679Z,20.10
2018-04-14T04:31:53.369Z,20.37
2018-04-14T04:32:55.861Z,18.35
2018-04-14T04:33:58.324Z,21.35
2018-04-14T04:35:00.791Z,17.95
2018-04-14T04:36:03.276Z,19.27
2018-04-14T04:37:05.756Z,19.17
2018-04-14T04:38:08.264Z,18.50
2018-04-14T04:39:10.748Z,18.90
2018-04-14T04:40:13.216Z,20.40
2018-04-14T04:41:15.677Z,19.87
2018-04-14T04:42:19.655Z,19.12
2018-04-14T04:43:22.120Z,20.00
2018-04-14T04:44:24.587Z,19.10
2018-04-14T04:45:27.819Z,20.35
2018-04-14T04:46:31.098Z,21.08
2018-04-14T04:47:33.575Z,21.50
2018-04-14T04:48:36.048Z,21.67
2018-04-14T04:49:38.558Z,22.35
2018-04-14T04:50:41.788Z,22.67
2018-04-14T04:51:45.077Z,23.80
2018-04-14T04:52:47.578Z,23.67
2018-04-14T04:53:50.066Z,26.77
2018-04-14T04:54:53.311Z,27.10
2018-04-14T04:55:56.487Z,29.05
2018-04-14T04:56:58.958Z,27.00
2018-04-14T04:58:01.414Z,29.85
2018-04-14T04:59:04.677Z,32.03
2018-04-14T05:00:07.154Z,33.30
2018-04-14T05:01:09.621Z,31.60
2018-04-14T05:02:12.493Z,32.53
2018-04-14T05:03:14.983Z,35.10
2018-04-14T05:04:17.521Z,36.63
2018-04-14T05:05:19.997Z,36.80
2018-04-14T05:06:23.247Z,37.25
2018-04-14T05:07:25.723Z,37.50
2018-04-14T05:08:28.242Z,38.65
2018-04-14T05:09:30.730Z,41.37
2018-04-14T05:10:34.006Z,42.30
2018-04-14T05:11:36.478Z,43.55
2018-04-14T05:12:38.948Z,41.15
2018-04-14T05:13:41.446Z,40.00
2018-04-14T05:14:43.925Z,43.58
2018-04-14T05:15:46.400Z,44.33
2018-04-14T05:16:49.639Z,43.55
2018-04-14T05:17:53.050Z,45.67
2018-04-14T05:18:55.564Z,44.20
2018-04-14T05:19:58.012Z,43.33
2018-04-14T05:21:00.485Z,43.35
2018-04-14T05:22:02.992Z,42.47
2018-04-14T05:23:06.228Z,47.60
2018-04-14T05:24:09.546Z,43.83
2018-04-14T05:25:12.033Z,43.47
2018-04-14T05:26:14.538Z,44.20
2018-04-14T05:27:17.808Z,43.90
2018-04-14T05:28:20.291Z,41.75
2018-04-14T05:29:23.558Z,43.50
2018-04-14T05:30:26.803Z,41.40
2018-04-14T05:31:30.573Z,42.90
2018-04-14T05:32:33.088Z,40.47
2018-04-14T05:33:35.565Z,42.62
2018-04-14T05:34:38.158Z,41.90
2018-04-14T05:35:40.670Z,40.78
2018-04-14T05:36:43.154Z,43.80
2018-04-14T05:37:45.709Z,49.30
2018-04-14T05:38:48.984Z,41.85
2018-04-14T05:39:51.541Z,42.25
2018-04-14T05:40:54.081Z,40.70
2018-04-14T05:41:56.616Z,40.22
2018-04-14T05:42:59.891Z,38.25
2018-04-14T05:44:02.351Z,37.35
2018-04-14T05:45:04.922Z,38.85
2018-04-14T05:46:08.204Z,39.03
2018-04-14T05:47:10.927Z,39.40
2018-04-14T05:48:13.412Z,38.25
2018-04-14T05:49:16.643Z,38.70
2018-04-14T05:50:20.004Z,37.67
2018-04-14T05:51:22.497Z,38.92
2018-04-14T05:52:24.968Z,36.25
2018-04-14T05:53:27.530Z,36.65
2018-04-14T05:54:30.013Z,37.80
2018-04-14T05:55:32.514Z,36.30
2018-04-14T05:56:35.775Z,36.30
2018-04-14T05:57:39.016Z,35.08
2018-04-14T05:58:41.480Z,35.65
2018-04-14T05:59:44.028Z,35.05
2018-04-14T06:00:46.498Z,36.17
2018-04-14T06:01:49.001Z,34.83
2018-04-14T06:02:51.479Z,35.67
2018-04-14T06:03:54.079Z,34.90
2018-04-14T06:04:56.570Z,35.00
2018-04-14T06:05:59.065Z,34.25
2018-04-14T06:07:02.354Z,35.10
2018-04-14T06:08:05.612Z,32.85
2018-04-14T06:09:08.192Z,34.53
2018-04-14T06:10:10.664Z,35.67
2018-04-14T06:11:13.197Z,34.45
2018-04-14T06:12:15.665Z,35.15
2018-04-14T06:13:19.017Z,34.88
2018-04-14T06:14:23.021Z,36.47
2018-04-14T06:15:25.503Z,35.88
2018-04-14T06:16:27.978Z,35.00
2018-04-14T06:17:30.517Z,36.58
2018-04-14T06:18:33.000Z,34.63
2018-04-14T06:19:36.357Z,34.75
2018-04-14T06:20:39.590Z,35.97
2018-04-14T06:21:42.849Z,33.90
2018-04-14T06:22:45.337Z,37.88
2018-04-14T06:23:47.902Z,35.42
2018-04-14T06:24:50.408Z,33.95
2018-04-14T06:25:53.650Z,34.53
2018-04-14T06:26:56.916Z,34.90
2018-04-14T06:27:59.387Z,37.08
2018-04-14T06:29:01.848Z,35.25
2018-04-14T06:30:05.099Z,34.40
2018-04-14T06:31:08.335Z,34.95
2018-04-14T06:32:11.571Z,34.95
2018-04-14T06:33:14.862Z,35.55
2018-04-14T06:34:17.324Z,34.90
2018-04-14T06:35:19.807Z,34.47
2018-04-14T06:36:22.270Z,35.50
2018-04-14T06:37:24.762Z,34.67
2018-04-14T06:38:27.273Z,31.73
2018-04-14T06:39:29.763Z,31.62
2018-04-14T06:40:33.001Z,31.80
2018-04-14T06:41:36.239Z,31.73
2018-04-14T06:42:38.807Z,32.60
2018-04-14T06:43:41.331Z,31.70
2018-04-14T06:44:43.807Z,31.40
2018-04-14T06:45:46.380Z,31.12
2018-04-14T06:46:48.849Z,32.30
2018-04-14T06:47:51.435Z,34.60
2018-04-14T06:48:53.947Z,34.50
2018-04-14T06:49:56.409Z,33.15
2018-04-14T06:50:59.378Z,33.72
2018-04-14T06:52:02.623Z,40.80
2018-04-14T06:53:05.881Z,34.45
2018-04-14T06:54:09.149Z,33.17
2018-04-14T06:55:12.307Z,34.42
2018-04-14T06:56:14.816Z,35.03
2018-04-14T06:57:17.301Z,34.97
2018-04-14T06:58:19.768Z,33.60
2018-04-14T06:59:22.257Z,44.33
2018-04-14T07:00:25.499Z,48.85
2018-04-14T07:01:28.809Z,35.15
2018-04-14T07:02:31.303Z,34.85
2018-04-14T07:03:33.781Z,36.05
2018-04-14T07:04:36.270Z,36.95
2018-04-14T07:05:38.730Z,37.63
2018-04-14T07:06:41.328Z,43.30
2018-04-14T07:07:43.891Z,40.58
2018-04-14T07:08:47.135Z,38.33
2018-04-14T07:09:50.387Z,39.40
2018-04-14T07:10:53.672Z,38.40
2018-04-14T07:11:56.184Z,40.55
2018-04-14T07:12:58.693Z,40.53
2018-04-14T07:14:01.184Z,40.65
2018-04-14T07:15:03.689Z,42.83
2018-04-14T07:16:06.167Z,44.45
2018-04-14T07:17:08.664Z,44.90
2018-04-14T07:18:11.148Z,45.35
2018-04-14T07:19:13.660Z,45.00
2018-04-14T07:20:16.195Z,44.42
2018-04-14T07:21:18.694Z,44.97
2018-04-14T07:22:21.228Z,48.50
2018-04-14T07:23:23.795Z,47.22
2018-04-14T07:24:26.289Z,44.42
2018-04-14T07:25:28.802Z,45.12
2018-04-14T07:26:31.289Z,45.22
2018-04-14T07:27:33.861Z,45.25
2018-04-14T07:28:36.333Z,47.30
2018-04-14T07:29:38.803Z,48.30
2018-04-14T07:30:41.331Z,49.03
2018-04-14T07:31:43.826Z,46.50
2018-04-14T07:32:47.045Z,50.33
2018-04-14T07:33:49.549Z,50.80
2018-04-14T07:34:52.066Z,49.70
2018-04-14T07:35:54.602Z,49.58
2018-04-14T07:36:57.089Z,52.03
2018-04-14T07:38:00.329Z,50.78
2018-04-14T07:39:03.580Z,53.65
2018-04-14T07:40:06.867Z,51.90
2018-04-14T07:41:09.351Z,50.78
2018-04-14T07:42:11.878Z,57.85
2018-04-14T07:43:14.349Z,52.55
2018-04-14T07:44:16.883Z,56.05
2018-04-14T07:45:19.426Z,51.05
2018-04-14T07:46:21.988Z,54.15
2018-04-14T07:47:24.461Z,49.80
2018-04-14T07:48:27.005Z,52.17
2018-04-14T07:49:30.254Z,51.78
2018-04-14T07:50:33.504Z,52.80
2018-04-14T07:51:36.760Z,50.67
2018-04-14T07:52:40.105Z,53.28
2018-04-14T07:53:42.631Z,50.30
2018-04-14T07:54:45.114Z,52.92
2018-04-14T07:55:47.688Z,50.95
2018-04-14T07:56:51.047Z,48.85
2018-04-14T07:57:53.526Z,50.33
2018-04-14T07:58:56.041Z,51.40
2018-04-14T07:59:58.547Z,48.65
2018-04-14T08:01:01.069Z,50.35
2018-04-14T08:02:03.542Z,50.22
2018-04-14T08:03:06.913Z,48.60
2018-04-14T08:04:09.386Z,54.50
2018-04-14T08:05:11.861Z,49.65
2018-04-14T08:06:14.367Z,46.97
2018-04-14T08:07:17.605Z,45.33
2018-04-14T08:08:20.862Z,47.92
2018-04-14T08:09:23.339Z,47.05
2018-04-14T08:10:25.813Z,46.00
2018-04-14T08:11:28.333Z,46.60
2018-04-14T08:12:30.832Z,48.65
2018-04-14T08:13:33.295Z,46.67
2018-04-14T08:14:35.810Z,48.60
2018-04-14T08:15:38.297Z,47.92
2018-04-14T08:16:40.785Z,47.50
2018-04-14T08:17:43.275Z,48.95
2018-04-14T08:18:46.632Z,49.08
2018-04-14T08:19:49.438Z,55.63
2018-04-14T08:20:52.701Z,50.42
2018-04-14T08:21:55.965Z,51.25
2018-04-14T08:22:58.492Z,55.15
2018-04-14T08:24:01.014Z,47.15
2018-04-14T08:25:03.538Z,56.70
2018-04-14T08:26:06.023Z,47.95
2018-04-14T08:27:08.500Z,57.35
2018-04-14T08:28:10.982Z,48.50
2018-04-14T08:29:14.254Z,49.90
2018-04-14T08:30:16.750Z,48.50
2018-04-14T08:31:20.182Z,46.03
2018-04-14T08:32:22.649Z,45.92
2018-04-14T08:33:25.148Z,51.55
2018-04-14T08:34:28.445Z,46.40
2018-04-14T08:35:30.900Z,46.55
2018-04-14T08:36:33.436Z,48.25
2018-04-14T08:37:35.913Z,47.00
2018-04-14T08:38:38.396Z,45.05
2018-04-14T08:39:41.683Z,45.22
2018-04-14T08:40:44.241Z,46.25
2018-04-14T08:41:46.736Z,44.00
2018-04-14T08:42:49.234Z,54.67
2018-04-14T08:43:51.716Z,45.40
2018-04-14T08:44:54.234Z,210.18
2018-04-14T08:45:56.756Z,73.05
2018-04-14T08:46:59.302Z,53.90
2018-04-14T08:48:01.813Z,51.13
2018-04-14T08:49:04.311Z,68.65
2018-04-14T08:50:06.821Z,53.13
2018-04-14T08:51:09.342Z,47.10
2018-04-14T08:52:11.873Z,43.55
2018-04-14T08:53:14.355Z,42.22
2018-04-14T08:54:16.878Z,42.38
2018-04-14T08:55:20.140Z,41.72
2018-04-14T08:56:23.540Z,37.92
2018-04-14T08:57:26.005Z,39.30
2018-04-14T08:58:29.719Z,40.78
2018-04-14T08:59:32.175Z,39.38
2018-04-14T09:00:35.415Z,39.88
2018-04-14T09:01:37.929Z,38.22
2018-04-14T09:02:40.467Z,37.70
2018-04-14T09:03:43.742Z,37.75
2018-04-14T09:04:46.730Z,37.50
2018-04-14T09:05:49.207Z,38.13
2018-04-14T09:06:51.681Z,38.88
2018-04-14T09:07:54.189Z,37.00
2018-04-14T09:08:56.724Z,37.67
2018-04-14T09:09:59.221Z,37.30
2018-04-14T09:11:01.711Z,37.40
2018-04-14T09:12:05.000Z,36.53
2018-04-14T09:13:07.638Z,38.40
2018-04-14T09:14:10.225Z,37.03
2018-04-14T09:15:14.520Z,35.63
2018-04-14T09:16:17.008Z,35.38
2018-04-14T09:17:20.263Z,35.38
2018-04-14T09:18:22.754Z,33.90
2018-04-14T09:19:26.016Z,35.55
2018-04-14T09:20:29.251Z,34.85
2018-04-14T09:21:32.516Z,34.42
2018-04-14T09:22:34.998Z,34.67
2018-04-14T09:23:37.478Z,32.50
2018-04-14T09:24:39.988Z,32.63
2018-04-14T09:25:42.474Z,32.15
2018-04-14T09:26:45.060Z,32.70
2018-04-14T09:27:47.566Z,32.88
2018-04-14T09:28:50.068Z,31.83
2018-04-14T09:29:53.346Z,32.72
2018-04-14T09:30:55.861Z,30.55
2018-04-14T09:31:58.347Z,31.98
2018-04-14T09:33:01.671Z,31.02
2018-04-14T09:34:04.978Z,31.50
2018-04-14T09:35:07.502Z,31.90
2018-04-14T09:36:09.973Z,31.30
2018-04-14T09:37:12.615Z,31.58
2018-04-14T09:38:15.152Z,30.45
2018-04-14T09:39:18.393Z,31.37
2018-04-14T09:40:21.656Z,30.55
2018-04-14T09:42:26.895Z,29.90
2018-04-14T09:43:29.377Z,29.15
2018-04-14T09:44:31.852Z,27.58
2018-04-14T09:45:35.184Z,28.62
2018-04-14T09:46:37.665Z,28.50
2018-04-14T09:47:40.178Z,27.75
2018-04-14T09:48:42.660Z,27.27
2018-04-14T09:49:45.122Z,28.20
2018-04-14T09:50:47.653Z,27.02
2018-04-14T09:51:50.152Z,26.60
2018-04-14T09:52:53.494Z,27.92
2018-04-14T09:53:56.775Z,25.12
2018-04-14T09:54:59.280Z,26.23
2018-04-14T09:56:01.804Z,26.73
2018-04-14T09:57:05.188Z,27.20
2018-04-14T09:58:07.676Z,26.55
2018-04-14T09:59:10.152Z,26.25
2018-04-14T10:00:28.383Z,24.75
2018-04-14T10:01:30.884Z,23.95
2018-04-14T10:02:39.729Z,25.17
2018-04-14T10:03:48.037Z,25.12
2018-04-14T10:04:50.559Z,25.50
2018-04-14T10:05:53.021Z,24.52
2018-04-14T10:06:55.510Z,25.92
2018-04-14T10:07:58.081Z,23.08
2018-04-14T10:09:00.705Z,22.80
2018-04-14T10:10:03.190Z,23.25
2018-04-14T10:11:05.687Z,23.62
2018-04-14T10:12:08.161Z,23.48
2018-04-14T10:13:10.644Z,23.70
2018-04-14T10:14:13.907Z,23.45
2018-04-14T10:15:16.392Z,22.92
2018-04-14T10:16:18.924Z,23.98
2018-04-14T10:17:21.358Z,23.65
2018-04-14T10:18:23.837Z,23.20
2018-04-14T10:19:26.329Z,21.52
2018-04-14T10:20:28.834Z,20.83
2018-04-14T10:21:32.086Z,20.55
2018-04-14T10:22:35.346Z,21.52
2018-04-14T10:23:37.820Z,20.73
2018-04-14T10:24:40.357Z,23.55
2018-04-14T10:25:42.841Z,22.35
2018-04-14T10:26:45.320Z,22.25
2018-04-14T10:27:48.581Z,21.92
2018-04-14T10:28:51.855Z,22.37
2018-04-14T10:29:54.372Z,21.25
2018-04-14T10:30:57.307Z,23.25
2018-04-14T10:31:59.777Z,20.90
2018-04-14T10:33:02.319Z,21.20
2018-04-14T10:34:05.587Z,21.95
2018-04-14T10:35:08.119Z,21.37
2018-04-14T10:36:10.646Z,21.62
2018-04-14T10:37:13.222Z,20.75
2018-04-14T10:38:15.715Z,22.30
2018-04-14T10:39:18.234Z,20.40
2018-04-14T10:40:20.718Z,20.62
2018-04-14T10:41:24.007Z,21.67
2018-04-14T10:42:26.534Z,21.83
2018-04-14T10:43:29.032Z,21.62
2018-04-14T10:44:31.544Z,22.05
2018-04-14T10:45:34.823Z,21.80
2018-04-14T10:46:37.292Z,23.00
2018-04-14T10:47:39.812Z,19.90
2018-04-14T10:49:51.333Z,19.08
2018-04-14T10:50:54.620Z,20.92
2018-04-14T10:51:57.213Z,21.08
2018-04-14T10:53:01.236Z,20.23
2018-04-14T10:54:03.948Z,20.37
2018-04-14T10:55:06.548Z,19.98
2018-04-14T10:56:09.211Z,20.60
2018-04-14T10:57:12.534Z,20.55
2018-04-14T10:58:15.075Z,20.40
2018-04-14T10:59:17.565Z,21.25
2018-04-14T11:00:20.054Z,21.67
2018-04-14T11:01:22.537Z,21.92
2018-04-14T11:02:25.438Z,20.98
2018-04-14T11:03:28.799Z,21.65
2018-04-14T11:04:31.280Z,20.42
2018-04-14T11:05:33.765Z,19.83
2018-04-14T11:06:36.261Z,20.05
2018-04-14T11:07:39.525Z,20.27
2018-04-14T11:08:42.006Z,20.73
2018-04-14T11:09:44.749Z,20.52
2018-04-14T11:10:47.653Z,18.52
2018-04-14T11:11:50.471Z,19.62
2018-04-14T11:12:53.222Z,20.52
2018-04-14T11:13:55.852Z,20.17
2018-04-14T11:14:58.340Z,20.55
2018-04-14T11:16:01.112Z,21.20
2018-04-14T11:17:03.846Z,20.75
2018-04-14T11:18:06.529Z,19.67
2018-04-14T11:19:09.105Z,19.95
2018-04-14T11:20:11.670Z,20.42
2018-04-14T11:21:14.203Z,21.70
2018-04-14T11:22:16.716Z,19.73
2018-04-14T11:23:20.026Z,18.85
2018-04-14T11:24:22.635Z,19.90
2018-04-14T11:25:25.941Z,20.52
2018-04-14T11:26:28.441Z,21.20
2018-04-14T11:27:31.723Z,20.75
2018-04-14T11:28:34.340Z,20.62
2018-04-14T11:29:36.834Z,21.77
2018-04-14T11:30:40.089Z,21.60
2018-04-14T11:31:43.327Z,21.52
2018-04-14T11:32:46.560Z,20.45
2018-04-14T11:33:49.808Z,22.62
2018-04-14T11:34:53.085Z,22.77
2018-04-14T11:35:55.589Z,21.60
2018-04-14T11:36:58.841Z,21.50
2018-04-14T11:38:01.312Z,21.02
2018-04-14T11:39:03.812Z,21.95
2018-04-14T11:40:06.370Z,21.95
2018-04-14T11:41:08.859Z,22.62
2018-04-14T11:42:11.346Z,21.65
2018-04-14T11:43:14.582Z,21.92
2018-04-14T11:44:18.032Z,20.80
2018-04-14T11:45:21.404Z,21.52
2018-04-14T11:46:23.934Z,21.52
2018-04-14T11:47:26.426Z,21.33
2018-04-14T11:48:29.672Z,22.05
2018-04-14T11:49:32.129Z,20.10
2018-04-14T11:50:34.687Z,21.42
2018-04-14T11:51:37.170Z,21.35
2018-04-14T11:52:39.654Z,21.12
2018-04-14T11:53:42.139Z,20.67
2018-04-14T11:54:44.626Z,21.33
2018-04-14T11:55:47.903Z,22.05
2018-04-14T11:56:50.385Z,21.00
2018-04-14T11:57:53.632Z,20.50
2018-04-14T11:58:56.941Z,20.40
2018-04-14T11:59:59.620Z,20.45
2018-04-14T12:01:02.130Z,20.15
2018-04-14T12:02:05.408Z,21.35
2018-04-14T12:03:07.886Z,20.00
2018-04-14T12:04:10.366Z,20.48
2018-04-14T12:05:12.841Z,19.23
2018-04-14T12:06:16.111Z,18.92
2018-04-14T12:07:18.599Z,20.37
2018-04-14T12:08:21.069Z,18.65
2018-04-14T12:09:24.179Z,18.62
2018-04-14T12:10:27.536Z,17.08
2018-04-14T12:11:30.891Z,17.27
2018-04-14T12:12:33.374Z,16.73
2018-04-14T12:13:35.973Z,17.02
2018-04-14T12:14:38.480Z,16.83
2018-04-14T12:15:40.954Z,15.35
2018-04-14T12:16:43.447Z,15.77
2018-04-14T12:17:45.919Z,17.85
2018-04-14T12:18:49.201Z,18.37
2018-04-14T12:19:51.842Z,17.65
2018-04-14T12:20:54.506Z,18.98
2018-04-14T12:21:57.001Z,18.80
2018-04-14T12:22:59.541Z,17.20
2018-04-14T12:24:02.033Z,17.98
2018-04-14T12:25:04.551Z,16.83
2018-04-14T12:26:07.035Z,18.65
2018-04-14T12:27:09.525Z,19.05
2018-04-14T12:28:12.015Z,18.70
2018-04-14T12:29:14.499Z,22.95
2018-04-14T12:30:16.973Z,52.97
2018-04-14T12:31:19.531Z,20.25
2018-04-14T12:32:22.045Z,21.65
2018-04-14T12:33:24.616Z,20.95
2018-04-14T12:34:27.122Z,18.85
2018-04-14T12:35:29.610Z,19.23
2018-04-14T12:36:32.139Z,20.50
2018-04-14T12:37:34.641Z,20.92
2018-04-14T12:38:37.905Z,21.23
2018-04-14T12:39:40.407Z,20.67
2018-04-14T12:40:42.910Z,24.05
2018-04-14T12:41:45.505Z,26.55
2018-04-14T12:42:48.017Z,23.90
2018-04-14T12:43:50.495Z,26.12
2018-04-14T12:44:52.994Z,26.35
2018-04-14T12:45:55.482Z,34.10
2018-04-14T12:46:57.955Z,27.40
2018-04-14T12:48:00.525Z,29.83
2018-04-14T12:49:03.084Z,30.05
2018-04-14T12:50:05.578Z,31.42
2018-04-14T12:51:08.064Z,32.67
2018-04-14T12:52:10.724Z,32.17
2018-04-14T12:53:14.071Z,31.98
2018-04-14T12:54:16.538Z,33.38
2018-04-14T12:55:19.011Z,40.00
2018-04-14T12:56:22.384Z,33.72
2018-04-14T12:57:24.950Z,37.42
2018-04-14T12:58:27.474Z,32.97
2018-04-14T12:59:29.943Z,32.53
2018-04-14T13:00:32.447Z,31.30
2018-04-14T13:01:35.689Z,35.13
2018-04-14T13:02:38.214Z,33.67
2018-04-14T13:03:40.713Z,33.65
2018-04-14T13:04:43.305Z,33.05
2018-04-14T13:05:45.820Z,37.22
2018-04-14T13:06:48.353Z,34.08
2018-04-14T13:07:50.868Z,31.10
2018-04-14T13:08:54.114Z,31.77
2018-04-14T13:09:56.586Z,32.58
2018-04-14T13:10:59.056Z,34.53
2018-04-14T13:12:02.295Z,32.40
2018-04-14T13:13:05.614Z,31.87
2018-04-14T13:14:09.597Z,31.80
2018-04-14T13:15:12.921Z,39.35
2018-04-14T13:16:16.063Z,46.15
2018-04-14T13:17:18.781Z,35.60
2018-04-14T13:18:21.292Z,34.65
2018-04-14T13:19:24.042Z,30.95
2018-04-14T13:20:26.533Z,31.75
2018-04-14T13:21:29.008Z,27.60
2018-04-14T13:22:32.319Z,27.50
2018-04-14T13:23:34.808Z,30.00
2018-04-14T13:24:37.306Z,29.27
2018-04-14T13:25:40.590Z,30.65
2018-04-14T13:26:43.062Z,30.45
2018-04-14T13:27:46.341Z,45.55
2018-04-14T13:28:49.208Z,32.25
2018-04-14T13:29:51.685Z,48.67
2018-04-14T13:30:54.175Z,82.57
2018-04-14T13:31:56.699Z,88.70
2018-04-14T13:32:59.166Z,73.10